^^
Datos históricos de la estación: Murcia-Puente Tocinos
Diario Informe para Marzo 19, 2019 Unidades:  Métrico    Ingés   Ambas
Diario Semanal Mensual Anual
  Máxima: Mínima: Promedio:
Temperatura: 33.4 °C 19.6 °C 26.4 °C
Punto de rocio: 18 °C 8.7 °C 13.8 °C
Humedad: 84.9% 23% 52%
Velocidad viento: 19.8km/h 0km/h 8.6km/h
Racha viento: 35.4km/h - -
Viento- - SSE
Presión: 1013.0 hPa 1008.8 hPa -
Precipitación: 0.0 mm    
 
 
Tabla de datos para Marzo 19, 2019
Hora Temperatura Punto de rocio Presión Viento Velocidad viento Racha viento Humedad Intensidad lluvia(por hora) Nubes
00:04 21.4 °C 17.4 °C 1012.8 hPa NNE 8.4 km/h 12.9 km/h 77.8% 0.0 mm
00:09 21.4 °C 17.4 °C 1012.8 hPa NNE 7.7 km/h 13 km/h 78.2% 0.0 mm
00:14 21.3 °C 17.5 °C 1012.8 hPa NNE 6.5 km/h 12.9 km/h 79% 0.0 mm
00:19 21.3 °C 17.5 °C 1013.0 hPa NNE 6.6 km/h 11.3 km/h 79% 0.0 mm
00:24 21.3 °C 17.7 °C 1013.0 hPa NE 6.9 km/h 11.1 km/h 79.9% 0.0 mm
00:29 21.2 °C 17.7 °C 1013.0 hPa NE 6.9 km/h 14.8 km/h 80.3% 0.0 mm
00:34 21.2 °C 17.8 °C 1013.0 hPa NE 6.9 km/h 14.5 km/h 81% 0.0 mm
00:39 21.1 °C 17.7 °C 1012.9 hPa NE 7.4 km/h 13 km/h 81% 0.0 mm
00:44 21 °C 17.8 °C 1012.9 hPa NE 8.4 km/h 13.7 km/h 81.8% 0.0 mm
00:49 21 °C 17.8 °C 1012.9 hPa NE 7.7 km/h 14.5 km/h 82% 0.0 mm
00:54 20.9 °C 17.7 °C 1012.7 hPa NE 6.5 km/h 11.3 km/h 82% 0.0 mm
00:59 20.9 °C 17.7 °C 1012.7 hPa NE 6.2 km/h 11.1 km/h 82% 0.0 mm
01:04 20.9 °C 17.7 °C 1012.7 hPa NNE 5.8 km/h 11.3 km/h 82% 0.0 mm
01:09 20.8 °C 17.7 °C 1012.7 hPa NE 5.8 km/h 11.3 km/h 82.5% 0.0 mm
01:14 20.8 °C 17.8 °C 1012.7 hPa NE 5.8 km/h 9.3 km/h 83% 0.0 mm
01:19 20.7 °C 17.7 °C 1012.7 hPa NNE 5.5 km/h 9.7 km/h 83% 0.0 mm
01:24 20.7 °C 17.8 °C 1012.6 hPa NNE 5 km/h 9.7 km/h 83.7% 0.0 mm
01:29 20.6 °C 17.8 °C 1012.6 hPa NNO 4.3 km/h 8 km/h 84% 0.0 mm
01:34 20.6 °C 17.8 °C 1012.6 hPa NE 3.2 km/h 8 km/h 84% 0.0 mm
01:39 20.6 °C 17.8 °C 1012.5 hPa NE 2.9 km/h 8 km/h 84% 0.0 mm
01:44 20.6 °C 17.8 °C 1012.5 hPa NNE 2.2 km/h 4.8 km/h 84% 0.0 mm
01:49 20.6 °C 17.8 °C 1012.6 hPa NNE 1.5 km/h 6.4 km/h 84% 0.0 mm
01:54 20.6 °C 17.8 °C 1012.6 hPa Calm   8 km/h 84% 0.0 mm
01:59 20.6 °C 17.8 °C 1012.6 hPa NO 1.1 km/h 8 km/h 84% 0.0 mm
02:04 20.6 °C 17.8 °C 1012.6 hPa NO 2.9 km/h 6.4 km/h 84% 0.0 mm
02:09 20.6 °C 17.8 °C 1012.5 hPa NO 2.9 km/h 6.4 km/h 84% 0.0 mm
02:14 20.6 °C 17.8 °C 1012.5 hPa NO 2.9 km/h 5.6 km/h 84% 0.0 mm
02:19 20.6 °C 17.8 °C 1012.5 hPa NO 1.9 km/h 3.7 km/h 84% 0.0 mm
02:24 20.6 °C 17.8 °C 1012.5 hPa Calm   3.9 km/h 84% 0.0 mm
02:29 20.6 °C 17.8 °C 1012.5 hPa Calm   3.2 km/h 84% 0.0 mm
02:34 20.6 °C 17.8 °C 1012.5 hPa Calm   2.3 km/h 84% 0.0 mm
02:39 20.6 °C 17.8 °C 1012.4 hPa Calm   1.9 km/h 84% 0.0 mm
02:44 20.5 °C 17.8 °C 1012.4 hPa Calm     84.6% 0.0 mm
02:49 20.5 °C 17.9 °C 1012.4 hPa Calm   5.8 km/h 84.9% 0.0 mm
02:54 20.5 °C 17.7 °C 1012.2 hPa Calm   10 km/h 84% 0.0 mm
02:59 20.4 °C 17.3 °C 1012.2 hPa SSO 1.9 km/h 9.7 km/h 82.6% 0.0 mm
03:04 20.4 °C 16.7 °C 1012.2 hPa SO 4.7 km/h 13 km/h 79.5% 0.0 mm
03:09 20.6 °C 16.5 °C 1012.2 hPa SO 5.5 km/h 13 km/h 77.6% 0.0 mm
03:14 20.7 °C 16.5 °C 1012.2 hPa SO 6.9 km/h 13 km/h 77% 0.0 mm
03:19 20.7 °C 16.5 °C 1012.2 hPa SO 6.9 km/h 11.3 km/h 77% 0.0 mm
03:24 20.7 °C 16.5 °C 1012.2 hPa SO 6.9 km/h 11.3 km/h 77% 0.0 mm
03:29 20.7 °C 16.7 °C 1012.2 hPa OSO 6.5 km/h 10 km/h 77.8% 0.0 mm
03:34 20.6 °C 16.7 °C 1012.2 hPa SO 5.8 km/h 10 km/h 78.2% 0.0 mm
03:39 20.6 °C 16.8 °C 1012.1 hPa SO 5.8 km/h 12.2 km/h 79% 0.0 mm
03:44 20.5 °C 16.9 °C 1012.1 hPa SO 5.8 km/h 13 km/h 79.8% 0.0 mm
03:49 20.5 °C 16.9 °C 1012.1 hPa SO 6 km/h 11.9 km/h 80% 0.0 mm
03:54 20.4 °C 16.8 °C 1012.0 hPa SO 6.5 km/h 11.3 km/h 80% 0.0 mm
03:59 20.4 °C 16.8 °C 1012.0 hPa OSO 6.5 km/h 11.3 km/h 80% 0.0 mm
04:04 20.4 °C 16.8 °C 1012.1 hPa OSO 6.5 km/h 13 km/h 80% 0.0 mm
04:09 20.4 °C 16.9 °C 1012.1 hPa SO 6.5 km/h 13 km/h 80.4% 0.0 mm
04:14 20.4 °C 17.1 °C 1012.1 hPa OSO 6.5 km/h 16.7 km/h 81% 0.0 mm
04:19 20.4 °C 17.2 °C 1012.1 hPa SO 6.6 km/h 16.7 km/h 81.8% 0.0 mm
04:24 20.3 °C 17.1 °C 1011.9 hPa SO 6.9 km/h 16.7 km/h 82% 0.0 mm
04:29 20.2 °C 17.2 °C 1011.9 hPa SO 7.5 km/h 16.1 km/h 82.8% 0.0 mm
04:34 20.2 °C 17.2 °C 1011.9 hPa SO 8.7 km/h 20.4 km/h 83% 0.0 mm
04:39 20.1 °C 17.1 °C 1011.8 hPa SO 9 km/h 20.9 km/h 83% 0.0 mm
04:44 20.1 °C 17.1 °C 1011.8 hPa SO 9.5 km/h 13 km/h 83% 0.0 mm
04:49 20.1 °C 17.1 °C 1011.9 hPa SO 8.6 km/h 12.9 km/h 83% 0.0 mm
04:54 20.1 °C 17.1 °C 1011.9 hPa OSO 6.9 km/h 14.8 km/h 83% 0.0 mm
04:59 20.1 °C 17.1 °C 1011.9 hPa SO 6.9 km/h 14.5 km/h 83% 0.0 mm
05:04 20.1 °C 17.1 °C 1011.9 hPa SSO 6.9 km/h 10.3 km/h 83% 0.0 mm
05:09 20.1 °C 17.1 °C 1011.9 hPa SSO 6.5 km/h 11.9 km/h 82.8% 0.0 mm
05:14 20.1 °C 17 °C 1011.9 hPa SO 5.8 km/h 11.3 km/h 82.5% 0.0 mm
05:19 20 °C 16.9 °C 1011.9 hPa SSO 5.5 km/h 12.2 km/h 82% 0.0 mm
05:24 19.9 °C 16.8 °C 1011.9 hPa SSO 5 km/h 13 km/h 82% 0.0 mm
05:29 19.9 °C 16.6 °C 1011.9 hPa SSO 6.1 km/h 13 km/h 81% 0.0 mm
05:34 19.9 °C 16.6 °C 1011.9 hPa SO 8.4 km/h 12.9 km/h 81% 0.0 mm
05:39 19.9 °C 16.4 °C 1011.9 hPa SSO 7.9 km/h 13 km/h 80.1% 0.0 mm
05:44 19.9 °C 16.4 °C 1011.9 hPa SSO 6.9 km/h 13 km/h 80.1% 0.0 mm
05:49 19.9 °C 16.6 °C 1011.9 hPa SSO 7.4 km/h 12.9 km/h 81.3% 0.0 mm
05:54 19.9 °C 16.7 °C 1011.9 hPa SSO 8.4 km/h 13 km/h 82% 0.0 mm
05:59 19.8 °C 16.6 °C 1011.9 hPa SSO 7.8 km/h 11.3 km/h 82% 0.0 mm
06:04 19.8 °C 16.6 °C 1012.0 hPa SO 6.9 km/h 14 km/h 82% 0.0 mm
06:09 19.8 °C 16.6 °C 1012.0 hPa SO 7.5 km/h 14.8 km/h 82% 0.0 mm
06:14 19.7 °C 16.6 °C 1012.0 hPa SO 8.4 km/h 14.5 km/h 82% 0.0 mm
06:19 19.7 °C 16.6 °C 1012.0 hPa SO 8.1 km/h 13 km/h 82% 0.0 mm
06:24 19.7 °C 16.6 °C 1012.0 hPa SO 7.6 km/h 13 km/h 82% 0.0 mm
06:29 19.7 °C 16.5 °C 1012.0 hPa SSO 7.3 km/h 12.9 km/h 81.8% 0.0 mm
06:34 19.7 °C 16.5 °C 1012.0 hPa SSO 6.9 km/h 13.7 km/h 81.6% 0.0 mm
06:39 19.7 °C 16.3 °C 1012.0 hPa SSO 6.9 km/h 14.8 km/h 80.8% 0.0 mm
06:44 19.6 °C 16.1 °C 1012.0 hPa SO 6.9 km/h 14.8 km/h 80% 0.0 mm
06:49 19.7 °C 16.1 °C 1012.0 hPa SO 7.5 km/h 14.5 km/h 79.7% 0.0 mm
06:54 19.7 °C 15.9 °C 1011.9 hPa SO 8.4 km/h 14.5 km/h 79% 0.0 mm
06:59 19.7 °C 15.9 °C 1011.9 hPa SO 7.6 km/h 11.3 km/h 78.9% 0.0 mm
07:04 19.7 °C 15.7 °C 1011.9 hPa OSO 6.5 km/h 11.1 km/h 77.7% 0.0 mm
07:09 19.7 °C 15.6 °C 1011.9 hPa OSO 6.6 km/h 11.3 km/h 77% 0.0 mm
07:14 19.8 °C 15.6 °C 1011.9 hPa SO 6.9 km/h 13.7 km/h 76.7% 0.0 mm
07:19 19.8 °C 15.7 °C 1012.0 hPa SO 6.8 km/h 14.5 km/h 77% 0.0 mm
07:24 19.9 °C 15.7 °C 1012.0 hPa SO 6.5 km/h 11.9 km/h 77% 0.0 mm
07:29 20 °C 15.8 °C 1012.0 hPa SO 5.9 km/h 11.3 km/h 76.6% 0.0 mm
07:34 20.1 °C 15.7 °C 1012.0 hPa SO 5 km/h 14.8 km/h 76% 0.0 mm
07:39 20.1 °C 15.6 °C 1012.0 hPa SO 5.9 km/h 14.5 km/h 75.2% 0.0 mm
07:44 20.2 °C 15.6 °C 1012.0 hPa SSO 7.6 km/h 11.3 km/h 75% 0.0 mm
07:49 20.4 °C 15.7 °C 1012.1 hPa SSO 7.3 km/h 14 km/h 74.6% 0.0 mm
07:54 20.4 °C 15.5 °C 1012.1 hPa SSO 6.9 km/h 14.8 km/h 73.5% 0.0 mm
07:59 20.5 °C 15.4 °C 1012.1 hPa SSO 7.6 km/h 15.6 km/h 72.7% 0.0 mm
08:04 20.6 °C 15.5 °C 1012.2 hPa SO 8.7 km/h 16.1 km/h 72.4% 0.0 mm
08:09 20.7 °C 15.4 °C 1012.2 hPa OSO 8.1 km/h 11.3 km/h 72% 0.0 mm
08:14 20.8 °C 15.5 °C 1012.2 hPa SO 6.9 km/h 13 km/h 71.9% 0.0 mm
08:19 20.9 °C 15.5 °C 1012.3 hPa OSO 6.9 km/h 13 km/h 71.2% 0.0 mm
08:24 21.1 °C 15.5 °C 1012.3 hPa OSO 6.9 km/h 12.9 km/h 70.3% 0.0 mm
08:29 21.2 °C 15.4 °C 1012.3 hPa SO 6.9 km/h 11.3 km/h 69.3% 0.0 mm
08:34 21.4 °C 15.4 °C 1012.3 hPa SO 6.9 km/h 11.3 km/h 68.6% 0.0 mm
08:39 21.7 °C 15.4 °C 1012.3 hPa OSO 6.8 km/h 11.3 km/h 67.4% 0.0 mm
08:44 21.8 °C 15.2 °C 1012.3 hPa OSO 6.5 km/h 11.1 km/h 66.2% 0.0 mm
08:49 22.1 °C 15 °C 1012.3 hPa OSO 6.9 km/h 11.3 km/h 64.2% 0.0 mm
08:54 22.4 °C 14.9 °C 1012.3 hPa OSO 7.6 km/h 11.3 km/h 62.6% 0.0 mm
08:59 22.7 °C 14.9 °C 1012.3 hPa SO 7.4 km/h 11.3 km/h 61.7% 0.0 mm
09:04 23 °C 14.8 °C 1012.3 hPa SO 6.9 km/h 10 km/h 60.1% 0.0 mm
09:09 23.3 °C 14.8 °C 1012.3 hPa SSO 6.5 km/h 13 km/h 58.7% 0.0 mm
09:14 23.6 °C 14.4 °C 1012.3 hPa SSO 5.8 km/h 14.8 km/h 56.4% 0.0 mm
09:19 23.8 °C 14.2 °C 1012.3 hPa SSO 6.7 km/h 14.5 km/h 54.9% 0.0 mm
09:24 24.2 °C 13.9 °C 1012.2 hPa SSO 8.4 km/h 13 km/h 52.6% 0.0 mm
09:29 24.4 °C 14 °C 1012.2 hPa SO 8.4 km/h 13 km/h 52.4% 0.0 mm
09:34 24.7 °C 13.8 °C 1012.2 hPa SSO 8.4 km/h 14.8 km/h 50.9% 0.0 mm
09:39 24.8 °C 13.9 °C 1012.2 hPa SO 8.5 km/h 14.5 km/h 51% 0.0 mm
09:44 25 °C 13.8 °C 1012.2 hPa OSO 8.7 km/h 12.9 km/h 49.9% 0.0 mm
09:49 25.2 °C 13.4 °C 1012.2 hPa SSO 7.9 km/h 11.9 km/h 48% 0.0 mm
09:54 25.3 °C 12.9 °C 1012.2 hPa SO 6.5 km/h 15.6 km/h 46% 0.0 mm
09:59 25.5 °C 12.7 °C 1012.2 hPa SO 6.9 km/h 16.1 km/h 45.2% 0.0 mm
10:04 25.6 °C 12.8 °C 1012.3 hPa SO 7.6 km/h 12.9 km/h 44.9% 0.0 mm
10:09 25.8 °C 12.9 °C 1012.3 hPa OSO 7.2 km/h 14 km/h 45% 0.0 mm
10:14 25.9 °C 13 °C 1012.3 hPa SO 6.5 km/h 14.8 km/h 45% 0.0 mm
10:19 25.9 °C 13 °C 1012.3 hPa OSO 7.2 km/h 14.5 km/h 44.8% 0.0 mm
10:24 26.2 °C 13.2 °C 1012.2 hPa OSO 8.4 km/h 16.7 km/h 44.7% 0.0 mm
10:29 26.3 °C 13.2 °C 1012.2 hPa SSO 7.8 km/h 16.1 km/h 44.2% 0.0 mm
10:34 26.7 °C 13.1 °C 1012.2 hPa SO 6.9 km/h 18.5 km/h 43.1% 0.0 mm
10:39 26.8 °C 12.8 °C 1012.1 hPa Oeste 7.9 km/h 19.3 km/h 41.8% 0.0 mm
10:44 27 °C 12.6 °C 1012.1 hPa Oeste 9.5 km/h 16.1 km/h 40.8% 0.0 mm
10:49 27.3 °C 12.4 °C 1012.1 hPa Oeste 9.1 km/h 18.5 km/h 39.8% 0.0 mm
10:54 27.5 °C 12.3 °C 1012.0 hPa SO 8.4 km/h 19.3 km/h 39% 0.0 mm
10:59 27.7 °C 12.5 °C 1012.0 hPa OSO 8 km/h 19.3 km/h 39% 0.0 mm
11:04 28 °C 12.3 °C 1012.0 hPa SO 7.6 km/h 15.6 km/h 38% 0.0 mm
11:09 28.1 °C 12.4 °C 1011.9 hPa SO 7.6 km/h 16.1 km/h 37.8% 0.0 mm
11:14 28.3 °C 12.2 °C 1011.9 hPa Oeste 7.6 km/h 13 km/h 37% 0.0 mm
11:19 28.5 °C 12.2 °C 1011.9 hPa ONO 7.3 km/h 12.9 km/h 36.4% 0.0 mm
11:24 28.8 °C 12.2 °C 1011.7 hPa SO 6.9 km/h 13 km/h 36% 0.0 mm
11:29 29 °C 12.3 °C 1011.7 hPa SO 6.8 km/h 12.9 km/h 35.7% 0.0 mm
11:34 29.2 °C 11.9 °C 1011.7 hPa Oeste 6.5 km/h 11.3 km/h 34.5% 0.0 mm
11:39 29.3 °C 11.9 °C 1011.7 hPa SO 6.2 km/h 15.6 km/h 34.2% 0.0 mm
11:44 29.3 °C 11.9 °C 1011.7 hPa OSO 5.8 km/h 16.1 km/h 34% 0.0 mm
11:49 29.4 °C 11.9 °C 1011.7 hPa Este 5.8 km/h 14.5 km/h 34.1% 0.0 mm
11:54 29.7 °C 12 °C 1011.7 hPa ENE 5.8 km/h 16.1 km/h 33.6% 0.0 mm
11:59 30 °C 11.9 °C 1011.7 hPa OSO 5.5 km/h 16.1 km/h 32.8% 0.0 mm
12:04 30.2 °C 11.6 °C 1011.7 hPa OSO 4.7 km/h 14.8 km/h 32% 0.0 mm
12:09 30.3 °C 11.7 °C 1011.6 hPa SO 6.3 km/h 17.2 km/h 31.8% 0.0 mm
12:14 30.5 °C 11.5 °C 1011.6 hPa SO 9.5 km/h 17.7 km/h 31.1% 0.0 mm
12:19 30.5 °C 11.5 °C 1011.6 hPa SO 9.2 km/h 17.7 km/h 31% 0.0 mm
12:24 30.6 °C 11.4 °C 1011.6 hPa SSO 8.4 km/h 19 km/h 30.7% 0.0 mm
12:29 30.6 °C 11.5 °C 1011.6 hPa SO 9 km/h 19.3 km/h 30.8% 0.0 mm
12:34 30.7 °C 11.4 °C 1011.6 hPa SO 10.3 km/h 19.3 km/h 30.6% 0.0 mm
12:39 30.6 °C 11.1 °C 1011.6 hPa SO 10.2 km/h 19.3 km/h 30% 0.0 mm
12:44 30.7 °C 11.2 °C 1011.6 hPa SSE 10 km/h 14.8 km/h 30% 0.0 mm
12:49 30.9 °C 11.1 °C 1011.6 hPa SSO 9.1 km/h 14.8 km/h 29.5% 0.0 mm
12:54 31.1 °C 11.1 °C 1011.6 hPa OSO 7.6 km/h 12.9 km/h 29.4% 0.0 mm
12:59 31.3 °C 11.4 °C 1011.6 hPa SSE 6.1 km/h 10 km/h 29.4% 0.0 mm
13:04 31.6 °C 11.4 °C 1011.6 hPa SSO 3.9 km/h 13 km/h 29% 0.0 mm
13:09 31.7 °C 11 °C 1011.5 hPa ONO 5 km/h 16.7 km/h 28.1% 0.0 mm
13:14 31.6 °C 11.1 °C 1011.5 hPa ONO 6.9 km/h 16.1 km/h 28.4% 0.0 mm
13:19 31.8 °C 11 °C 1011.5 hPa SSO 6.8 km/h 14.5 km/h 28% 0.0 mm
13:24 31.9 °C 11 °C 1011.4 hPa Sur 6.5 km/h 15.6 km/h 27.8% 0.0 mm
13:29 31.9 °C 11.1 °C 1011.4 hPa Sur 7.1 km/h 16.7 km/h 28% 0.0 mm
13:34 31.8 °C 11.1 °C 1011.4 hPa SSE 8.4 km/h 16.1 km/h 28% 0.0 mm
13:39 31.8 °C 11.1 °C 1011.2 hPa SE 8.4 km/h 14.5 km/h 28% 0.0 mm
13:44 31.8 °C 11.1 °C 1011.2 hPa ESE 8.4 km/h 11.3 km/h 27.9% 0.0 mm
13:49 31.9 °C 10.8 °C 1011.2 hPa SE 7.7 km/h 11.3 km/h 27.4% 0.0 mm
13:54 32.1 °C 10.9 °C 1011.1 hPa SE 6.5 km/h 11.3 km/h 27.3% 0.0 mm
13:59 32.2 °C 10.9 °C 1011.1 hPa Oeste 5.7 km/h 10 km/h 27.1% 0.0 mm
14:04 32.3 °C 11 °C 1011.1 hPa NNE 4.7 km/h 11.1 km/h 27.2% 0.0 mm
14:09 32.5 °C 11.1 °C 1010.9 hPa ONO 5.1 km/h 11.3 km/h 27% 0.0 mm
14:14 32.8 °C 11.3 °C 1010.9 hPa OSO 5.8 km/h 10 km/h 26.9% 0.0 mm
14:19 33.1 °C 11 °C 1010.9 hPa OSO 5.5 km/h 12.2 km/h 26% 0.0 mm
14:24 33.1 °C 11 °C 1010.7 hPa SSO 5 km/h 14.8 km/h 26% 0.0 mm
14:29 32.9 °C 10.8 °C 1010.7 hPa SO 5.7 km/h 14.5 km/h 26% 0.0 mm
14:34 33.2 °C 11.3 °C 1010.7 hPa NNO 6.9 km/h 17.2 km/h 26.5% 0.0 mm
14:39 33.2 °C 12.1 °C 1010.5 hPa ESE 7.5 km/h 25.9 km/h 27.8% 0.0 mm
14:44 33.1 °C 12.5 °C 1010.5 hPa SE 8.7 km/h 27.8 km/h 28.6% 0.0 mm
14:49 32.9 °C 12.7 °C 1010.5 hPa SE 11.2 km/h 31.5 km/h 29.4% 0.0 mm
14:54 33 °C 12.7 °C 1010.3 hPa SE 15.6 km/h 32.2 km/h 29.2% 0.0 mm
14:59 32.9 °C 12.5 °C 1010.3 hPa SE 14.6 km/h 29.1 km/h 29% 0.0 mm
15:04 32.8 °C 12.6 °C 1010.3 hPa ESE 13 km/h 29.6 km/h 29.2% 0.0 mm
15:09 32.8 °C 12.7 °C 1010.2 hPa Este 14.8 km/h 29.8 km/h 29.4% 0.0 mm
15:14 32.8 °C 12.8 °C 1010.2 hPa ESE 18 km/h 30.6 km/h 29.7% 0.0 mm
15:19 32.8 °C 13 °C 1010.2 hPa ESE 17.5 km/h 30.6 km/h 30.1% 0.0 mm
15:24 32.9 °C 12.6 °C 1010.0 hPa ESE 16.4 km/h 29.6 km/h 29.2% 0.0 mm
15:29 33 °C 12.3 °C 1010.0 hPa SE 16.3 km/h 29.8 km/h 28.4% 0.0 mm
15:34 33.2 °C 12 °C 1010.1 hPa SE 16.1 km/h 30.6 km/h 27.6% 0.0 mm
15:39 33.2 °C 11.6 °C 1010.1 hPa SE 15.6 km/h 30.6 km/h 26.9% 0.0 mm
15:44 33.3 °C 11.6 °C 1010.1 hPa SE 14.8 km/h 30.6 km/h 26.8% 0.0 mm
15:49 33.2 °C 11.7 °C 1010.1 hPa ESE 15.3 km/h 29.1 km/h 27% 0.0 mm
15:54 33.3 °C 11.4 °C 1009.8 hPa SE 16.1 km/h 29.6 km/h 26.5% 0.0 mm
15:59 33.2 °C 11.1 °C 1009.8 hPa ESE 16.8 km/h 31.7 km/h 26% 0.0 mm
16:04 33.1 °C 11 °C 1009.8 hPa SE 18 km/h 32.2 km/h 26% 0.0 mm
16:09 33.3 °C 10.8 °C 1009.6 hPa SE 18 km/h 29 km/h 25.4% 0.0 mm
16:14 33.3 °C 10.8 °C 1009.6 hPa ESE 18 km/h 27.4 km/h 25.2% 0.0 mm
16:19 33.4 °C 10.7 °C 1009.6 hPa SE 17.3 km/h 27.8 km/h 25% 0.0 mm
16:24 33.3 °C 10.6 °C 1009.6 hPa SE 16.1 km/h 27.4 km/h 25% 0.0 mm
16:29 33.2 °C 10.6 °C 1009.6 hPa ESE 16.1 km/h 27.8 km/h 25% 0.0 mm
16:34 32.9 °C 10.3 °C 1009.6 hPa ESE 16.1 km/h 32.3 km/h 25% 0.0 mm
16:39 32.8 °C 10.3 °C 1009.4 hPa SE 16.2 km/h 33.8 km/h 25.2% 0.0 mm
16:44 33.1 °C 10.4 °C 1009.4 hPa SE 19.8 km/h 33.8 km/h 24.9% 0.0 mm
16:49 32.9 °C 10.1 °C 1009.4 hPa ESE 18.9 km/h 33.3 km/h 24.7% 0.0 mm
16:54 32.9 °C 10.1 °C 1009.4 hPa ESE 17.2 km/h 34.3 km/h 24.7% 0.0 mm
16:59 32.9 °C 10.1 °C 1009.4 hPa SE 16.8 km/h 34.6 km/h 24.7% 0.0 mm
17:04 33 °C 9.9 °C 1009.4 hPa ESE 16.1 km/h 35.4 km/h 24.2% 0.0 mm
17:09 33.1 °C 10 °C 1009.4 hPa SE 15.9 km/h 32.2 km/h 24.3% 0.0 mm
17:14 33.2 °C 9.9 °C 1009.4 hPa ESE 15.6 km/h 27.8 km/h 24% 0.0 mm
17:19 33 °C 9.8 °C 1009.4 hPa SE 15.8 km/h 27.4 km/h 24.1% 0.0 mm
17:24 33 °C 10.2 °C 1009.3 hPa ESE 16.1 km/h 29.6 km/h 24.8% 0.0 mm
17:29 32.9 °C 9.8 °C 1009.3 hPa ESE 15.6 km/h 29 km/h 24.2% 0.0 mm
17:34 32.9 °C 9.6 °C 1009.3 hPa ESE 14.8 km/h 27.8 km/h 23.9% 0.0 mm
17:39 32.7 °C 9.1 °C 1009.2 hPa ESE 15.7 km/h 31.7 km/h 23.4% 0.0 mm
17:44 32.5 °C 8.9 °C 1009.2 hPa ESE 17.2 km/h 33.3 km/h 23.3% 0.0 mm
17:49 32.5 °C 8.8 °C 1009.2 hPa SE 16.9 km/h 33.8 km/h 23.1% 0.0 mm
17:54 32.8 °C 8.9 °C 1009.1 hPa ESE 16.4 km/h 27.8 km/h 23% 0.0 mm
17:59 32.7 °C 8.9 °C 1009.1 hPa ESE 16.7 km/h 29.8 km/h 23.1% 0.0 mm
18:04 32.4 °C 9.1 °C 1009.1 hPa ESE 17.2 km/h 30.6 km/h 23.8% 0.0 mm
18:09 32.3 °C 9.2 °C 1009.0 hPa ESE 17.4 km/h 27.4 km/h 24% 0.0 mm
18:14 32.4 °C 9.3 °C 1009.0 hPa ESE 18 km/h 27 km/h 24% 0.0 mm
18:19 32.3 °C 9.2 °C 1009.0 hPa ESE 18 km/h 27.8 km/h 24% 0.0 mm
18:24 32.3 °C 9.2 °C 1008.9 hPa Este 18 km/h 27.4 km/h 24% 0.0 mm
18:29 32.3 °C 9 °C 1008.9 hPa ESE 16.8 km/h 28.6 km/h 23.8% 0.0 mm
18:34 32.3 °C 9 °C 1008.9 hPa ESE 14 km/h 29.6 km/h 23.8% 0.0 mm
18:39 32.1 °C 9 °C 1008.9 hPa ESE 15.2 km/h 24.5 km/h 24% 0.0 mm
18:44 32.1 °C 9 °C 1008.9 hPa Este 17.2 km/h 24.1 km/h 24% 0.0 mm
18:49 32.2 °C 9 °C 1008.9 hPa ESE 15.7 km/h 24.1 km/h 24% 0.0 mm
18:54 32.2 °C 9 °C 1008.9 hPa ESE 13 km/h 24.1 km/h 23.9% 0.0 mm
18:59 32 °C 8.7 °C 1008.9 hPa ESE 13.7 km/h 24.1 km/h 23.7% 0.0 mm
19:04 31.9 °C 8.8 °C 1009.0 hPa ESE 14.8 km/h 24.1 km/h 24% 0.0 mm
19:09 31.9 °C 8.8 °C 1009.0 hPa Este 13.7 km/h 20.9 km/h 24% 0.0 mm
19:14 31.9 °C 8.8 °C 1009.0 hPa Este 11.9 km/h 24.1 km/h 24% 0.0 mm
19:19 31.8 °C 8.8 °C 1009.0 hPa ESE 12 km/h 24.1 km/h 24.1% 0.0 mm
19:24 31.8 °C 9.2 °C 1009.0 hPa ESE 12.2 km/h 25.9 km/h 24.8% 0.0 mm
19:29 31.6 °C 9.2 °C 1009.0 hPa ESE 13.2 km/h 25.7 km/h 25% 0.0 mm
19:34 31.5 °C 9.1 °C 1009.0 hPa ESE 14.8 km/h 24.1 km/h 25% 0.0 mm
19:39 31.5 °C 9.2 °C 1008.9 hPa ESE 14.2 km/h 22.5 km/h 25.2% 0.0 mm
19:44 31.4 °C 9.6 °C 1008.9 hPa ESE 13 km/h 22.5 km/h 26% 0.0 mm
19:49 31.4 °C 9.6 °C 1008.9 hPa ESE 12.7 km/h 19.3 km/h 26% 0.0 mm
19:54 31.3 °C 9.5 °C 1008.9 hPa ESE 12.2 km/h 20.4 km/h 26% 0.0 mm
19:59 31.3 °C 9.6 °C 1008.9 hPa ESE 12.2 km/h 20.9 km/h 26.2% 0.0 mm
20:04 31.3 °C 10 °C 1008.9 hPa ESE 12.2 km/h 19.3 km/h 27% 0.0 mm
20:09 31.2 °C 10 °C 1008.9 hPa ESE 11.5 km/h 16.1 km/h 27% 0.0 mm
20:14 31.2 °C 10 °C 1008.9 hPa Este 10.3 km/h 14.5 km/h 27% 0.0 mm
20:19 31.2 °C 10 °C 1008.9 hPa ESE 9.3 km/h 12.9 km/h 27% 0.0 mm
20:24 31.2 °C 10.5 °C 1008.8 hPa ESE 7.6 km/h 14.8 km/h 27.9% 0.0 mm
20:29 31.1 °C 10.4 °C 1008.8 hPa ESE 8 km/h 14.8 km/h 28% 0.0 mm
20:34 31 °C 10.3 °C 1008.9 hPa Este 8.7 km/h 14.5 km/h 28% 0.0 mm
20:39 31 °C 10.7 °C 1008.9 hPa Este 7.8 km/h 11.3 km/h 28.7% 0.0 mm
20:44 30.9 °C 10.8 °C 1008.9 hPa Este 5.8 km/h 9.7 km/h 29.1% 0.0 mm
20:49 30.8 °C 11.2 °C 1008.9 hPa Este 6 km/h 11.1 km/h 30% 0.0 mm
20:54 30.7 °C 11.2 °C 1008.9 hPa ENE 6.5 km/h 11.3 km/h 30% 0.0 mm
20:59 30.7 °C 11.4 °C 1008.9 hPa NNE 5.4 km/h 8.4 km/h 30.6% 0.0 mm
21:04 30.7 °C 11.8 °C 1009.0 hPa Este 3.9 km/h 10.3 km/h 31.5% 0.0 mm
21:09 30.3 °C 12.3 °C 1009.0 hPa ENE 4.5 km/h 11.9 km/h 33.1% 0.0 mm
21:14 30.1 °C 12.6 °C 1009.0 hPa ENE 5.8 km/h 11.3 km/h 34.2% 0.0 mm
21:19 29.9 °C 12.9 °C 1009.0 hPa NE 5.8 km/h 11.3 km/h 35.3% 0.0 mm
21:24 29.7 °C 12.8 °C 1008.9 hPa NE 5.8 km/h 12.2 km/h 35.6% 0.0 mm
21:29 29.4 °C 13 °C 1008.9 hPa NE 6.7 km/h 13 km/h 36.6% 0.0 mm
21:34 29.3 °C 13.3 °C 1009.0 hPa NE 8.4 km/h 12.9 km/h 37.6% 0.0 mm
21:39 29.2 °C 13.5 °C 1009.0 hPa NE 7.8 km/h 11.3 km/h 38.2% 0.0 mm
21:44 29 °C 12.1 °C 1009.0 hPa NE 6.9 km/h 11.1 km/h 35.3% 0.0 mm
21:49 28.8 °C 12.3 °C 1009.0 hPa NE 6.9 km/h 11.3 km/h 36.2% 0.0 mm
21:54 28.7 °C 12.2 °C 1009.0 hPa NE 6.9 km/h 11.1 km/h 36.1% 0.0 mm
21:59 28.5 °C 12.5 °C 1009.0 hPa NE 6.7 km/h 11.3 km/h 37.4% 0.0 mm
22:04 28.3 °C 12.9 °C 1009.2 hPa NE 6.5 km/h 11.9 km/h 38.9% 0.0 mm
22:09 28.2 °C 13.4 °C 1009.2 hPa NE 6.5 km/h 14.8 km/h 40.3% 0.0 mm
22:14 27.8 °C 13.6 °C 1009.2 hPa NNE 6.5 km/h 16.7 km/h 41.8% 0.0 mm
22:19 27.2 °C 14 °C 1009.5 hPa NNE 7.8 km/h 16.7 km/h 44.2% 0.0 mm
22:24 26.7 °C 14.8 °C 1009.5 hPa NNE 10 km/h 16.7 km/h 48% 0.0 mm
22:29 26.2 °C 15.7 °C 1009.5 hPa NE 10 km/h 16.7 km/h 52.3% 0.0 mm
22:34 25.7 °C 16.2 °C 1009.7 hPa NE 10 km/h 16.7 km/h 55.7% 0.0 mm
22:39 25.3 °C 16.6 °C 1009.7 hPa NE 10.4 km/h 18.5 km/h 58.6% 0.0 mm
22:44 25.1 °C 16.9 °C 1009.7 hPa NNE 11.1 km/h 19.3 km/h 60.4% 0.0 mm
22:49 24.9 °C 17.1 °C 1009.9 hPa NNE 10.5 km/h 17.2 km/h 61.8% 0.0 mm
22:54 24.8 °C 17.3 °C 1009.9 hPa NE 9.5 km/h 17.7 km/h 62.9% 0.0 mm
22:59 24.8 °C 17.2 °C 1009.9 hPa NE 9 km/h 14.5 km/h 63% 0.0 mm
23:04 24.7 °C 17.3 °C 1010.1 hPa NNE 8.4 km/h 13 km/h 63.6% 0.0 mm
23:09 24.7 °C 17.4 °C 1010.1 hPa NE 7.7 km/h 16.4 km/h 64% 0.0 mm
23:14 24.6 °C 17.5 °C 1010.1 hPa NE 6.5 km/h 16.7 km/h 64.9% 0.0 mm
23:19 24.4 °C 17.5 °C 1010.1 hPa NNE 6.9 km/h 14.5 km/h 65.5% 0.0 mm
23:24 24.4 °C 17.6 °C 1010.1 hPa NE 7.6 km/h 11.9 km/h 66.2% 0.0 mm
23:29 24.3 °C 17.8 °C 1010.1 hPa NE 7.3 km/h 11.3 km/h 67% 0.0 mm
23:34 24.2 °C 17.8 °C 1010.3 hPa North 6.9 km/h 11.3 km/h 67.6% 0.0 mm
23:39 24.2 °C 18 °C 1010.3 hPa NE 6.1 km/h 9.5 km/h 68.3% 0.0 mm
23:44 24.1 °C 18 °C 1010.3 hPa NNE 4.7 km/h 9.7 km/h 69% 0.0 mm
23:49 23.9 °C 17.9 °C 1010.3 hPa North 4.6 km/h 9.7 km/h 69% 0.0 mm
23:54 23.9 °C 17.9 °C 1010.3 hPa NNE 4.7 km/h 8 km/h 69% 0.0 mm
23:59 23.8 °C 17.9 °C 1010.3 hPa NNE 4.4 km/h 8.7 km/h 69.6% 0.0 mm
Murcia-Puente Tocinos, España
Compliments of Weather Underground - 3 mb

La estación de MeteoMurcia.com, publica sus datos en los siguientes proyectos:

Weather Underground PWS IMURCIAP2 Meteoclimatic www.awekas.at

W3Counter
Web Analytics